createdAt,value
2022-12-20T00:11:10.208Z,7.3
2022-12-20T00:25:44.860Z,7.1
2022-12-20T00:40:20.135Z,7.4
2022-12-20T00:54:55.795Z,7.4
2022-12-20T01:09:28.635Z,7.4
2022-12-20T01:24:03.199Z,7.6
2022-12-20T01:38:41.071Z,7.9
2022-12-20T01:53:15.436Z,8.1
2022-12-20T02:07:49.995Z,8.1
2022-12-20T02:22:24.102Z,8
2022-12-20T02:36:58.634Z,7.8
2022-12-20T02:51:33.124Z,8
2022-12-20T03:06:08.096Z,8.2
2022-12-20T03:20:42.707Z,8
2022-12-20T03:35:18.850Z,8
2022-12-20T03:49:56.007Z,7.9
2022-12-20T04:04:27.719Z,8.1
2022-12-20T04:19:02.764Z,8.1
2022-12-20T04:33:38.306Z,8.1
2022-12-20T04:48:37.451Z,8.1
2022-12-20T05:03:17.828Z,8.3
2022-12-20T05:17:51.240Z,8.3
2022-12-20T05:32:25.872Z,8.1
2022-12-20T05:47:00.972Z,8.3
2022-12-20T06:01:37.099Z,8.1
2022-12-20T06:16:12.679Z,8.1
2022-12-20T06:30:46.687Z,8.1
2022-12-20T06:45:21.088Z,8.2
2022-12-20T06:59:55.620Z,8.1
2022-12-20T07:14:33.203Z,8.2
2022-12-20T07:29:10.528Z,8.4
2022-12-20T07:43:46.828Z,8.4
2022-12-20T07:58:22.165Z,8.4
2022-12-20T08:12:57.901Z,8.6
2022-12-20T08:27:32.294Z,8.7
2022-12-20T08:42:06.375Z,8.4
2022-12-20T08:56:42.478Z,8.7
2022-12-20T09:11:16.104Z,8.9
2022-12-20T09:25:54.015Z,8.9
2022-12-20T09:40:28.095Z,9.1
2022-12-20T09:55:02.882Z,9
2022-12-20T10:09:37.655Z,9.1
2022-12-20T10:24:15.455Z,9
2022-12-20T10:38:51.570Z,9.2
2022-12-20T10:53:26.659Z,9.4
2022-12-20T11:23:13.719Z,9.5
2022-12-20T11:37:48.715Z,9.5
2022-12-20T11:52:23.227Z,9.6
2022-12-20T12:06:57.207Z,9.6
2022-12-20T12:21:31.480Z,9.6
2022-12-20T12:36:06.000Z,9.6
2022-12-20T12:50:40.881Z,9.4
2022-12-20T13:05:14.222Z,9.4
2022-12-20T13:19:49.008Z,9.7
2022-12-20T13:34:23.629Z,9.4
2022-12-20T13:48:58.984Z,9.4
2022-12-20T14:03:33.593Z,9.4
2022-12-20T14:18:08.241Z,9.5
2022-12-20T14:32:43.621Z,9.6
2022-12-20T14:47:17.927Z,9.4
2022-12-20T15:01:52.383Z,9.3
2022-12-20T15:16:27.187Z,9.2
2022-12-20T15:31:00.883Z,9.1
2022-12-20T15:45:36.313Z,9.1
2022-12-20T16:00:10.451Z,9.1
2022-12-20T16:14:47.129Z,9.2
2022-12-20T16:29:21.113Z,9.1
2022-12-20T16:43:55.374Z,9.4
2022-12-20T16:58:52.557Z,9.3
2022-12-20T17:13:38.416Z,9.4
2022-12-20T17:28:15.362Z,9.5
2022-12-20T17:42:48.077Z,9.3
2022-12-20T17:57:23.345Z,9.6
2022-12-20T18:12:00.421Z,9.5
2022-12-20T18:26:34.433Z,9.5
2022-12-20T18:41:07.650Z,9.4
2022-12-20T18:55:42.726Z,9.5
2022-12-20T19:10:18.070Z,9.5
2022-12-20T19:24:52.843Z,9.4
2022-12-20T19:39:27.692Z,9.5
2022-12-20T19:54:04.494Z,9.4
2022-12-20T20:08:38.496Z,9.5
2022-12-20T20:23:11.172Z,9.3
2022-12-20T20:37:44.580Z,9.4
2022-12-20T20:52:18.060Z,9.6
2022-12-20T21:06:52.417Z,9.6
2022-12-20T21:21:27.307Z,9.6
2022-12-20T21:36:02.219Z,9.6
2022-12-20T21:50:37.498Z,9.7
2022-12-20T22:05:12.640Z,9.7
2022-12-20T22:19:47.974Z,9.7
2022-12-20T22:34:25.139Z,9.8
2022-12-20T22:48:59.792Z,9.8
2022-12-20T23:03:35.044Z,9.8
2022-12-20T23:18:10.767Z,9.9
2022-12-20T23:32:45.039Z,10
2022-12-20T23:47:23.518Z,10
